Overview Statistics Trail Chart Weather Telemetry Raw packets
 

This is the latest recevied weather packets stored in our database for station/object KI4NG. If no packets are shown the sender has not sent any weather packets the latest 10 day(s).

<< 10 11 12 13 14 15 16 >>
Time Temp. Humidity Pressure Rain* Wind** Luminosity Snow
1788551768 33.89° C 57% 1018 hPa 0 mm - 627 W/m² -
1788551462 32.78° C 65% 1018.3 hPa 0 mm - 496 W/m² -
1788551162 32.78° C 66% 1018.1 hPa 0 mm - 138 W/m² -
1788550857 32.78° C 64% 1018.1 hPa 0 mm - 129 W/m² -
1788550551 32.78° C 60% 1018.2 hPa 0 mm - 110 W/m² -
1788550248 33.33° C 59% 1018.3 hPa 0 mm - 180 W/m² -
1788549947 33.33° C 59% 1018.2 hPa 0 mm - 152 W/m² -
1788549644 33.89° C 57% 1018.3 hPa 0 mm - 146 W/m² -
1788549340 33.89° C 58% 1018.5 hPa 0 mm - 167 W/m² -
1788549036 33.89° C 58% 1018.6 hPa 0 mm - 135 W/m² -
1788548731 35° C 55% 1018.6 hPa 0 mm - 144 W/m² -
1788548428 35° C 53% 1018.7 hPa 0 mm - 599 W/m² -
1788548124 35.56° C 52% 1018.8 hPa 0 mm - 717 W/m² -
1788547818 35.56° C 51% 1018.6 hPa 0 mm - 681 W/m² -
1788547513 34.44° C 53% 1018.8 hPa 0 mm - 638 W/m² -
1788547208 34.44° C 54% 1018.7 hPa 0 mm - 734 W/m² -
1788546903 35° C 53% 1018.9 hPa 0 mm - 728 W/m² -
1788546598 33.89° C 55% 1019.1 hPa 0 mm - 703 W/m² -
1788546294 32.78° C 60% 1019.1 hPa 0 mm - 498 W/m² -
1788545993 32.78° C 62% 1019.1 hPa 0 mm - 140 W/m² -
1788545689 33.33° C 57% 1019.3 hPa 0 mm - 137 W/m² -
1788545384 33.33° C 57% 1019.3 hPa 0 mm - 181 W/m² -
1788545079 33.33° C 59% 1019.3 hPa 0 mm - 211 W/m² -
1788544778 33.89° C 57% 1019.6 hPa 0 mm - 219 W/m² -
1788544477 35° C 54% 1019.3 hPa 0 mm - 452 W/m² -

* Rain latest hour (hover to see other rain measurements)
** Current wind speed in m/s (hover to see current wind gust speed)